METAR Data
IDs: Format: Raw Decoded Include TAF

Data at: 0907 UTC 03 Aug 2021

SBKP 030900Z 15010KT CAVOK 12/10 Q1024